sensor_id;sensor_type;location;lat;lon;timestamp;P1;durP1;ratioP1;P2;durP2;ratioP2
43560;SDS011;32305;46.410;17.394;2023-02-28T00:00:37;4.67;;;3.43;;
43560;SDS011;32305;46.410;17.394;2023-02-28T00:03:05;4.38;;;3.40;;
43560;SDS011;32305;46.410;17.394;2023-02-28T00:05:32;4.43;;;3.50;;
43560;SDS011;32305;46.410;17.394;2023-02-28T00:08:00;3.75;;;3.35;;
43560;SDS011;32305;46.410;17.394;2023-02-28T00:10:28;3.70;;;3.10;;
43560;SDS011;32305;46.410;17.394;2023-02-28T00:13:02;4.65;;;3.70;;
43560;SDS011;32305;46.410;17.394;2023-02-28T00:15:31;5.13;;;3.65;;
43560;SDS011;32305;46.410;17.394;2023-02-28T00:17:59;4.40;;;3.75;;
43560;SDS011;32305;46.410;17.394;2023-02-28T00:20:28;3.47;;;2.85;;
43560;SDS011;32305;46.410;17.394;2023-02-28T00:22:55;3.75;;;3.25;;
43560;SDS011;32305;46.410;17.394;2023-02-28T00:25:24;4.15;;;3.33;;
43560;SDS011;32305;46.410;17.394;2023-02-28T00:27:52;4.85;;;3.55;;
43560;SDS011;32305;46.410;17.394;2023-02-28T00:30:20;4.45;;;3.22;;
43560;SDS011;32305;46.410;17.394;2023-02-28T00:32:49;5.15;;;3.83;;
43560;SDS011;32305;46.410;17.394;2023-02-28T00:35:17;4.90;;;3.47;;
43560;SDS011;32305;46.410;17.394;2023-02-28T00:37:44;4.30;;;3.25;;
43560;SDS011;32305;46.410;17.394;2023-02-28T00:40:11;3.53;;;3.20;;
43560;SDS011;32305;46.410;17.394;2023-02-28T00:42:39;3.85;;;3.05;;
43560;SDS011;32305;46.410;17.394;2023-02-28T00:45:07;3.25;;;2.95;;
43560;SDS011;32305;46.410;17.394;2023-02-28T00:47:35;4.05;;;2.92;;
43560;SDS011;32305;46.410;17.394;2023-02-28T00:50:02;3.58;;;3.08;;
43560;SDS011;32305;46.410;17.394;2023-02-28T00:52:30;2.92;;;2.53;;
43560;SDS011;32305;46.410;17.394;2023-02-28T00:54:57;3.15;;;2.83;;
43560;SDS011;32305;46.410;17.394;2023-02-28T00:57:24;3.92;;;2.97;;
43560;SDS011;32305;46.410;17.394;2023-02-28T00:59:52;3.78;;;2.92;;
43560;SDS011;32305;46.410;17.394;2023-02-28T01:02:21;4.13;;;2.90;;
43560;SDS011;32305;46.410;17.394;2023-02-28T01:04:49;2.97;;;2.50;;
43560;SDS011;32305;46.410;17.394;2023-02-28T01:07:16;2.88;;;2.60;;
43560;SDS011;32305;46.410;17.394;2023-02-28T01:09:43;3.53;;;3.05;;
43560;SDS011;32305;46.410;17.394;2023-02-28T01:12:10;3.33;;;2.42;;
43560;SDS011;32305;46.410;17.394;2023-02-28T01:14:38;3.88;;;3.00;;
43560;SDS011;32305;46.410;17.394;2023-02-28T01:17:05;2.83;;;2.42;;
43560;SDS011;32305;46.410;17.394;2023-02-28T01:19:32;3.30;;;2.47;;
43560;SDS011;32305;46.410;17.394;2023-02-28T01:22:00;3.17;;;2.83;;
43560;SDS011;32305;46.410;17.394;2023-02-28T01:24:28;2.50;;;2.30;;
43560;SDS011;32305;46.410;17.394;2023-02-28T01:26:55;2.97;;;2.67;;
43560;SDS011;32305;46.410;17.394;2023-02-28T01:29:23;2.83;;;2.50;;
43560;SDS011;32305;46.410;17.394;2023-02-28T01:31:50;2.58;;;2.38;;
43560;SDS011;32305;46.410;17.394;2023-02-28T01:34:17;2.30;;;2.10;;
43560;SDS011;32305;46.410;17.394;2023-02-28T01:36:45;3.35;;;2.45;;
43560;SDS011;32305;46.410;17.394;2023-02-28T01:39:13;3.13;;;2.60;;
43560;SDS011;32305;46.410;17.394;2023-02-28T01:41:40;3.83;;;2.55;;
43560;SDS011;32305;46.410;17.394;2023-02-28T01:44:55;2.72;;;2.30;;
43560;SDS011;32305;46.410;17.394;2023-02-28T01:47:14;3.00;;;2.28;;
43560;SDS011;32305;46.410;17.394;2023-02-28T01:49:41;2.72;;;2.28;;
43560;SDS011;32305;46.410;17.394;2023-02-28T01:52:09;3.83;;;2.60;;
43560;SDS011;32305;46.410;17.394;2023-02-28T01:54:54;3.72;;;2.67;;
43560;SDS011;32305;46.410;17.394;2023-02-28T01:57:25;2.47;;;2.28;;
43560;SDS011;32305;46.410;17.394;2023-02-28T01:59:58;2.90;;;2.50;;
43560;SDS011;32305;46.410;17.394;2023-02-28T02:02:34;2.55;;;2.35;;
43560;SDS011;32305;46.410;17.394;2023-02-28T02:05:04;2.63;;;2.42;;
43560;SDS011;32305;46.410;17.394;2023-02-28T02:07:38;2.10;;;1.92;;
43560;SDS011;32305;46.410;17.394;2023-02-28T02:15:54;2.60;;;2.40;;
43560;SDS011;32305;46.410;17.394;2023-02-28T02:18:46;2.50;;;2.30;;
43560;SDS011;32305;46.410;17.394;2023-02-28T02:27:33;2.03;;;1.85;;
43560;SDS011;32305;46.410;17.394;2023-02-28T02:36:41;2.47;;;2.22;;
43560;SDS011;32305;46.410;17.394;2023-02-28T02:39:28;2.03;;;1.90;;
43560;SDS011;32305;46.410;17.394;2023-02-28T02:42:15;2.03;;;1.83;;
43560;SDS011;32305;46.410;17.394;2023-02-28T02:44:50;2.97;;;2.55;;
43560;SDS011;32305;46.410;17.394;2023-02-28T02:47:25;2.40;;;2.03;;
43560;SDS011;32305;46.410;17.394;2023-02-28T02:49:57;2.50;;;2.30;;
43560;SDS011;32305;46.410;17.394;2023-02-28T02:52:30;2.40;;;2.20;;
43560;SDS011;32305;46.410;17.394;2023-02-28T02:55:08;2.42;;;2.22;;
43560;SDS011;32305;46.410;17.394;2023-02-28T02:57:41;3.95;;;2.20;;
43560;SDS011;32305;46.410;17.394;2023-02-28T03:00:16;2.65;;;2.45;;
43560;SDS011;32305;46.410;17.394;2023-02-28T03:02:48;2.38;;;1.83;;
43560;SDS011;32305;46.410;17.394;2023-02-28T03:05:20;2.55;;;2.08;;
43560;SDS011;32305;46.410;17.394;2023-02-28T03:08:03;2.47;;;2.28;;
43560;SDS011;32305;46.410;17.394;2023-02-28T03:10:36;3.20;;;2.28;;
43560;SDS011;32305;46.410;17.394;2023-02-28T03:13:19;2.30;;;2.10;;
43560;SDS011;32305;46.410;17.394;2023-02-28T03:16:22;2.22;;;2.03;;
43560;SDS011;32305;46.410;17.394;2023-02-28T03:19:03;1.75;;;1.65;;
43560;SDS011;32305;46.410;17.394;2023-02-28T03:22:06;2.58;;;2.30;;
43560;SDS011;32305;46.410;17.394;2023-02-28T03:25:05;2.65;;;2.15;;
43560;SDS011;32305;46.410;17.394;2023-02-28T03:27:40;2.05;;;1.85;;
43560;SDS011;32305;46.410;17.394;2023-02-28T03:30:36;1.92;;;1.73;;
43560;SDS011;32305;46.410;17.394;2023-02-28T03:33:21;2.30;;;1.67;;
43560;SDS011;32305;46.410;17.394;2023-02-28T03:36:04;3.38;;;2.08;;
43560;SDS011;32305;46.410;17.394;2023-02-28T03:41:30;3.10;;;2.50;;
43560;SDS011;32305;46.410;17.394;2023-02-28T03:44:06;2.05;;;1.80;;
43560;SDS011;32305;46.410;17.394;2023-02-28T03:46:43;2.83;;;2.28;;
43560;SDS011;32305;46.410;17.394;2023-02-28T03:49:22;2.00;;;1.80;;
43560;SDS011;32305;46.410;17.394;2023-02-28T03:51:53;2.22;;;2.03;;
43560;SDS011;32305;46.410;17.394;2023-02-28T03:54:23;1.67;;;1.57;;
43560;SDS011;32305;46.410;17.394;2023-02-28T03:56:57;2.20;;;2.03;;
43560;SDS011;32305;46.410;17.394;2023-02-28T03:59:34;2.55;;;1.98;;
43560;SDS011;32305;46.410;17.394;2023-02-28T04:02:12;2.15;;;1.80;;
43560;SDS011;32305;46.410;17.394;2023-02-28T04:04:39;2.47;;;2.00;;
43560;SDS011;32305;46.410;17.394;2023-02-28T04:07:11;2.55;;;1.80;;
43560;SDS011;32305;46.410;17.394;2023-02-28T04:09:38;2.58;;;2.13;;
43560;SDS011;32305;46.410;17.394;2023-02-28T04:12:06;2.88;;;2.00;;
43560;SDS011;32305;46.410;17.394;2023-02-28T04:14:33;1.73;;;1.52;;
43560;SDS011;32305;46.410;17.394;2023-02-28T04:17:00;2.00;;;1.90;;
43560;SDS011;32305;46.410;17.394;2023-02-28T04:19:28;1.75;;;1.65;;
43560;SDS011;32305;46.410;17.394;2023-02-28T04:21:55;1.70;;;1.60;;
43560;SDS011;32305;46.410;17.394;2023-02-28T04:24:24;2.13;;;1.77;;
43560;SDS011;32305;46.410;17.394;2023-02-28T04:26:53;1.77;;;1.60;;
43560;SDS011;32305;46.410;17.394;2023-02-28T04:29:31;2.23;;;1.93;;
43560;SDS011;32305;46.410;17.394;2023-02-28T04:31:59;1.77;;;1.58;;
43560;SDS011;32305;46.410;17.394;2023-02-28T04:34:29;1.55;;;1.45;;
43560;SDS011;32305;46.410;17.394;2023-02-28T04:36:58;1.42;;;1.30;;
43560;SDS011;32305;46.410;17.394;2023-02-28T04:39:42;2.22;;;1.65;;
43560;SDS011;32305;46.410;17.394;2023-02-28T04:42:10;1.65;;;1.55;;
43560;SDS011;32305;46.410;17.394;2023-02-28T04:44:38;2.70;;;1.80;;
43560;SDS011;32305;46.410;17.394;2023-02-28T04:47:05;2.03;;;1.50;;
43560;SDS011;32305;46.410;17.394;2023-02-28T04:49:33;1.73;;;1.50;;
43560;SDS011;32305;46.410;17.394;2023-02-28T04:52:00;2.05;;;1.50;;
43560;SDS011;32305;46.410;17.394;2023-02-28T04:54:27;1.73;;;1.63;;
43560;SDS011;32305;46.410;17.394;2023-02-28T04:56:54;2.25;;;1.75;;
43560;SDS011;32305;46.410;17.394;2023-02-28T04:59:22;1.50;;;1.40;;
43560;SDS011;32305;46.410;17.394;2023-02-28T05:01:49;1.55;;;1.45;;
43560;SDS011;32305;46.410;17.394;2023-02-28T05:04:16;1.90;;;1.70;;
43560;SDS011;32305;46.410;17.394;2023-02-28T05:06:44;2.55;;;1.70;;
43560;SDS011;32305;46.410;17.394;2023-02-28T05:09:11;1.98;;;1.67;;
43560;SDS011;32305;46.410;17.394;2023-02-28T05:11:38;1.38;;;1.27;;
43560;SDS011;32305;46.410;17.394;2023-02-28T05:14:09;1.70;;;1.52;;
43560;SDS011;32305;46.410;17.394;2023-02-28T05:16:38;1.83;;;1.65;;
43560;SDS011;32305;46.410;17.394;2023-02-28T05:19:06;1.40;;;1.30;;
43560;SDS011;32305;46.410;17.394;2023-02-28T05:21:38;2.47;;;1.65;;
43560;SDS011;32305;46.410;17.394;2023-02-28T05:24:09;1.80;;;1.50;;
43560;SDS011;32305;46.410;17.394;2023-02-28T05:26:39;1.73;;;1.50;;
43560;SDS011;32305;46.410;17.394;2023-02-28T05:29:07;1.70;;;1.60;;
43560;SDS011;32305;46.410;17.394;2023-02-28T05:31:35;1.73;;;1.55;;
43560;SDS011;32305;46.410;17.394;2023-02-28T05:34:03;1.95;;;1.50;;
43560;SDS011;32305;46.410;17.394;2023-02-28T05:36:33;1.65;;;1.55;;
43560;SDS011;32305;46.410;17.394;2023-02-28T05:39:03;2.83;;;2.07;;
43560;SDS011;32305;46.410;17.394;2023-02-28T05:41:31;2.75;;;2.17;;
43560;SDS011;32305;46.410;17.394;2023-02-28T05:43:59;3.15;;;2.17;;
43560;SDS011;32305;46.410;17.394;2023-02-28T05:46:27;1.90;;;1.80;;
43560;SDS011;32305;46.410;17.394;2023-02-28T05:48:54;2.25;;;2.05;;
43560;SDS011;32305;46.410;17.394;2023-02-28T05:51:23;2.83;;;2.35;;
43560;SDS011;32305;46.410;17.394;2023-02-28T05:53:50;2.72;;;2.20;;
43560;SDS011;32305;46.410;17.394;2023-02-28T05:56:17;2.45;;;2.00;;
43560;SDS011;32305;46.410;17.394;2023-02-28T05:58:44;2.92;;;2.20;;
43560;SDS011;32305;46.410;17.394;2023-02-28T06:01:22;3.15;;;2.30;;
43560;SDS011;32305;46.410;17.394;2023-02-28T06:04:01;2.55;;;2.20;;
43560;SDS011;32305;46.410;17.394;2023-02-28T06:06:30;2.78;;;2.35;;
43560;SDS011;32305;46.410;17.394;2023-02-28T06:08:57;3.15;;;2.47;;
43560;SDS011;32305;46.410;17.394;2023-02-28T06:11:25;3.42;;;2.70;;
43560;SDS011;32305;46.410;17.394;2023-02-28T06:13:54;3.92;;;2.47;;
43560;SDS011;32305;46.410;17.394;2023-02-28T06:16:23;3.67;;;2.80;;
43560;SDS011;32305;46.410;17.394;2023-02-28T06:18:51;3.53;;;2.70;;
43560;SDS011;32305;46.410;17.394;2023-02-28T06:21:19;2.65;;;2.45;;
43560;SDS011;32305;46.410;17.394;2023-02-28T06:23:46;3.90;;;3.00;;
43560;SDS011;32305;46.410;17.394;2023-02-28T06:26:13;3.45;;;2.80;;
43560;SDS011;32305;46.410;17.394;2023-02-28T06:28:40;3.50;;;2.58;;
43560;SDS011;32305;46.410;17.394;2023-02-28T06:31:08;3.80;;;2.75;;
43560;SDS011;32305;46.410;17.394;2023-02-28T06:33:37;4.57;;;2.65;;
43560;SDS011;32305;46.410;17.394;2023-02-28T06:36:05;3.90;;;2.88;;
43560;SDS011;32305;46.410;17.394;2023-02-28T06:38:33;4.45;;;3.17;;
43560;SDS011;32305;46.410;17.394;2023-02-28T06:41:01;3.58;;;3.00;;
43560;SDS011;32305;46.410;17.394;2023-02-28T06:43:30;3.20;;;2.50;;
43560;SDS011;32305;46.410;17.394;2023-02-28T06:46:00;5.13;;;3.42;;
43560;SDS011;32305;46.410;17.394;2023-02-28T06:48:29;3.67;;;2.80;;
43560;SDS011;32305;46.410;17.394;2023-02-28T06:51:10;4.10;;;2.90;;
43560;SDS011;32305;46.410;17.394;2023-02-28T06:53:40;4.53;;;3.00;;
43560;SDS011;32305;46.410;17.394;2023-02-28T06:56:08;3.83;;;2.60;;
43560;SDS011;32305;46.410;17.394;2023-02-28T06:58:37;6.35;;;2.97;;
43560;SDS011;32305;46.410;17.394;2023-02-28T07:01:06;4.38;;;3.00;;
43560;SDS011;32305;46.410;17.394;2023-02-28T07:03:35;3.77;;;3.10;;
43560;SDS011;32305;46.410;17.394;2023-02-28T07:06:04;5.30;;;2.80;;
43560;SDS011;32305;46.410;17.394;2023-02-28T07:08:32;7.05;;;2.92;;
43560;SDS011;32305;46.410;17.394;2023-02-28T07:11:00;3.55;;;2.72;;
43560;SDS011;32305;46.410;17.394;2023-02-28T07:13:28;4.65;;;3.53;;
43560;SDS011;32305;46.410;17.394;2023-02-28T07:16:00;5.03;;;3.72;;
43560;SDS011;32305;46.410;17.394;2023-02-28T07:18:28;5.93;;;4.07;;
43560;SDS011;32305;46.410;17.394;2023-02-28T07:20:56;6.72;;;4.43;;
43560;SDS011;32305;46.410;17.394;2023-02-28T07:23:23;6.53;;;3.78;;
43560;SDS011;32305;46.410;17.394;2023-02-28T07:25:50;4.85;;;3.42;;
43560;SDS011;32305;46.410;17.394;2023-02-28T07:28:18;5.05;;;3.50;;
43560;SDS011;32305;46.410;17.394;2023-02-28T07:30:45;6.90;;;3.40;;
43560;SDS011;32305;46.410;17.394;2023-02-28T07:33:12;4.80;;;3.58;;
43560;SDS011;32305;46.410;17.394;2023-02-28T07:35:40;5.68;;;3.42;;
43560;SDS011;32305;46.410;17.394;2023-02-28T07:38:08;6.47;;;3.70;;
43560;SDS011;32305;46.410;17.394;2023-02-28T07:40:35;6.43;;;3.45;;
43560;SDS011;32305;46.410;17.394;2023-02-28T07:43:04;10.10;;;4.20;;
43560;SDS011;32305;46.410;17.394;2023-02-28T07:45:31;5.40;;;4.20;;
43560;SDS011;32305;46.410;17.394;2023-02-28T07:48:01;5.32;;;4.20;;
43560;SDS011;32305;46.410;17.394;2023-02-28T07:50:28;5.78;;;4.53;;
43560;SDS011;32305;46.410;17.394;2023-02-28T07:52:57;6.95;;;4.10;;
43560;SDS011;32305;46.410;17.394;2023-02-28T07:55:25;5.68;;;3.53;;
43560;SDS011;32305;46.410;17.394;2023-02-28T07:57:53;5.53;;;3.90;;
43560;SDS011;32305;46.410;17.394;2023-02-28T08:00:21;7.93;;;4.15;;
43560;SDS011;32305;46.410;17.394;2023-02-28T08:02:48;7.55;;;3.95;;
43560;SDS011;32305;46.410;17.394;2023-02-28T08:05:16;4.72;;;3.75;;
43560;SDS011;32305;46.410;17.394;2023-02-28T08:07:48;5.68;;;4.28;;
43560;SDS011;32305;46.410;17.394;2023-02-28T08:10:16;7.53;;;4.27;;
43560;SDS011;32305;46.410;17.394;2023-02-28T08:12:43;7.35;;;4.22;;
43560;SDS011;32305;46.410;17.394;2023-02-28T08:15:10;4.78;;;4.00;;
43560;SDS011;32305;46.410;17.394;2023-02-28T08:17:38;5.22;;;4.05;;
43560;SDS011;32305;46.410;17.394;2023-02-28T08:20:05;6.78;;;3.17;;
43560;SDS011;32305;46.410;17.394;2023-02-28T08:22:34;5.57;;;3.60;;
43560;SDS011;32305;46.410;17.394;2023-02-28T08:25:01;7.40;;;4.15;;
43560;SDS011;32305;46.410;17.394;2023-02-28T08:27:28;5.68;;;3.50;;
43560;SDS011;32305;46.410;17.394;2023-02-28T08:29:55;5.97;;;4.22;;
43560;SDS011;32305;46.410;17.394;2023-02-28T08:32:22;7.30;;;3.60;;
43560;SDS011;32305;46.410;17.394;2023-02-28T08:34:55;4.93;;;3.75;;
43560;SDS011;32305;46.410;17.394;2023-02-28T08:37:22;10.98;;;5.53;;
43560;SDS011;32305;46.410;17.394;2023-02-28T08:39:50;11.25;;;4.80;;
43560;SDS011;32305;46.410;17.394;2023-02-28T08:42:21;6.50;;;3.92;;
43560;SDS011;32305;46.410;17.394;2023-02-28T08:44:49;6.30;;;3.85;;
43560;SDS011;32305;46.410;17.394;2023-02-28T08:47:16;6.50;;;3.67;;
43560;SDS011;32305;46.410;17.394;2023-02-28T08:49:44;6.20;;;3.70;;
43560;SDS011;32305;46.410;17.394;2023-02-28T08:52:11;6.20;;;4.82;;
43560;SDS011;32305;46.410;17.394;2023-02-28T08:54:38;8.20;;;3.90;;
43560;SDS011;32305;46.410;17.394;2023-02-28T08:57:05;7.10;;;4.32;;
43560;SDS011;32305;46.410;17.394;2023-02-28T08:59:33;6.15;;;4.13;;
43560;SDS011;32305;46.410;17.394;2023-02-28T09:02:00;7.45;;;4.28;;
43560;SDS011;32305;46.410;17.394;2023-02-28T09:04:27;7.18;;;3.85;;
43560;SDS011;32305;46.410;17.394;2023-02-28T09:06:57;8.23;;;3.58;;
43560;SDS011;32305;46.410;17.394;2023-02-28T09:09:25;7.65;;;3.95;;
43560;SDS011;32305;46.410;17.394;2023-02-28T09:11:52;5.78;;;3.90;;
43560;SDS011;32305;46.410;17.394;2023-02-28T09:14:22;6.20;;;4.03;;
43560;SDS011;32305;46.410;17.394;2023-02-28T09:16:50;8.23;;;3.72;;
43560;SDS011;32305;46.410;17.394;2023-02-28T09:19:17;7.63;;;4.88;;
43560;SDS011;32305;46.410;17.394;2023-02-28T09:21:45;7.78;;;3.90;;
43560;SDS011;32305;46.410;17.394;2023-02-28T09:24:12;7.43;;;4.07;;
43560;SDS011;32305;46.410;17.394;2023-02-28T09:26:41;6.85;;;4.55;;
43560;SDS011;32305;46.410;17.394;2023-02-28T09:29:28;8.60;;;4.57;;
43560;SDS011;32305;46.410;17.394;2023-02-28T09:31:56;8.82;;;4.45;;
43560;SDS011;32305;46.410;17.394;2023-02-28T09:34:27;7.55;;;3.92;;
43560;SDS011;32305;46.410;17.394;2023-02-28T09:39:24;6.38;;;3.80;;
43560;SDS011;32305;46.410;17.394;2023-02-28T09:41:53;9.68;;;4.63;;
43560;SDS011;32305;46.410;17.394;2023-02-28T09:44:31;5.72;;;4.00;;
43560;SDS011;32305;46.410;17.394;2023-02-28T09:47:25;6.00;;;4.22;;
43560;SDS011;32305;46.410;17.394;2023-02-28T09:50:03;7.90;;;4.07;;
43560;SDS011;32305;46.410;17.394;2023-02-28T09:52:50;8.45;;;4.78;;
43560;SDS011;32305;46.410;17.394;2023-02-28T09:55:24;7.90;;;4.35;;
43560;SDS011;32305;46.410;17.394;2023-02-28T09:58:09;7.18;;;4.20;;
43560;SDS011;32305;46.410;17.394;2023-02-28T10:01:00;8.68;;;4.22;;
43560;SDS011;32305;46.410;17.394;2023-02-28T10:03:40;6.43;;;3.67;;
43560;SDS011;32305;46.410;17.394;2023-02-28T10:06:20;7.82;;;3.50;;
43560;SDS011;32305;46.410;17.394;2023-02-28T10:08:55;6.90;;;4.10;;
43560;SDS011;32305;46.410;17.394;2023-02-28T10:11:32;6.68;;;3.60;;
43560;SDS011;32305;46.410;17.394;2023-02-28T10:14:04;7.38;;;3.97;;
43560;SDS011;32305;46.410;17.394;2023-02-28T10:16:45;6.25;;;4.20;;
43560;SDS011;32305;46.410;17.394;2023-02-28T10:19:30;6.07;;;3.75;;
43560;SDS011;32305;46.410;17.394;2023-02-28T10:22:04;7.40;;;4.63;;
43560;SDS011;32305;46.410;17.394;2023-02-28T10:24:39;7.03;;;3.70;;
43560;SDS011;32305;46.410;17.394;2023-02-28T10:27:19;7.25;;;4.30;;
43560;SDS011;32305;46.410;17.394;2023-02-28T10:29:55;7.65;;;4.22;;
43560;SDS011;32305;46.410;17.394;2023-02-28T10:32:26;5.45;;;3.80;;
43560;SDS011;32305;46.410;17.394;2023-02-28T10:35:14;5.45;;;3.30;;
43560;SDS011;32305;46.410;17.394;2023-02-28T10:37:44;6.35;;;4.03;;
43560;SDS011;32305;46.410;17.394;2023-02-28T10:40:26;8.55;;;3.80;;
43560;SDS011;32305;46.410;17.394;2023-02-28T10:42:59;5.15;;;3.38;;
43560;SDS011;32305;46.410;17.394;2023-02-28T10:45:57;11.25;;;3.50;;
43560;SDS011;32305;46.410;17.394;2023-02-28T10:48:30;5.32;;;3.70;;
43560;SDS011;32305;46.410;17.394;2023-02-28T10:51:00;5.07;;;3.55;;
43560;SDS011;32305;46.410;17.394;2023-02-28T10:53:31;4.82;;;3.25;;
43560;SDS011;32305;46.410;17.394;2023-02-28T10:56:25;6.97;;;2.67;;
43560;SDS011;32305;46.410;17.394;2023-02-28T10:59:28;3.83;;;2.60;;
43560;SDS011;32305;46.410;17.394;2023-02-28T11:05:02;5.20;;;3.03;;
43560;SDS011;32305;46.410;17.394;2023-02-28T11:07:29;4.50;;;3.35;;
43560;SDS011;32305;46.410;17.394;2023-02-28T11:10:18;5.03;;;3.72;;
43560;SDS011;32305;46.410;17.394;2023-02-28T11:12:48;4.60;;;3.00;;
43560;SDS011;32305;46.410;17.394;2023-02-28T11:15:23;5.57;;;2.78;;
43560;SDS011;32305;46.410;17.394;2023-02-28T11:17:57;4.35;;;3.30;;
43560;SDS011;32305;46.410;17.394;2023-02-28T11:20:43;4.97;;;2.80;;
43560;SDS011;32305;46.410;17.394;2023-02-28T11:23:16;4.70;;;2.78;;
43560;SDS011;32305;46.410;17.394;2023-02-28T11:25:49;7.05;;;3.22;;
43560;SDS011;32305;46.410;17.394;2023-02-28T11:28:25;4.75;;;2.88;;
43560;SDS011;32305;46.410;17.394;2023-02-28T11:30:59;4.75;;;3.30;;
43560;SDS011;32305;46.410;17.394;2023-02-28T11:33:44;8.60;;;3.15;;
43560;SDS011;32305;46.410;17.394;2023-02-28T11:36:19;3.40;;;2.67;;
43560;SDS011;32305;46.410;17.394;2023-02-28T11:38:51;3.90;;;2.80;;
43560;SDS011;32305;46.410;17.394;2023-02-28T11:47:36;4.80;;;2.53;;
43560;SDS011;32305;46.410;17.394;2023-02-28T11:53:16;3.45;;;2.60;;
43560;SDS011;32305;46.410;17.394;2023-02-28T11:56:10;4.43;;;2.72;;
43560;SDS011;32305;46.410;17.394;2023-02-28T12:02:04;3.45;;;2.80;;
43560;SDS011;32305;46.410;17.394;2023-02-28T12:04:53;5.82;;;2.53;;
43560;SDS011;32305;46.410;17.394;2023-02-28T12:10:22;3.80;;;1.90;;
43560;SDS011;32305;46.410;17.394;2023-02-28T12:13:01;3.53;;;2.67;;
43560;SDS011;32305;46.410;17.394;2023-02-28T12:15:52;4.20;;;2.70;;
43560;SDS011;32305;46.410;17.394;2023-02-28T12:18:32;3.15;;;2.53;;
43560;SDS011;32305;46.410;17.394;2023-02-28T12:27:25;5.10;;;2.60;;
43560;SDS011;32305;46.410;17.394;2023-02-28T12:32:47;6.38;;;2.47;;
43560;SDS011;32305;46.410;17.394;2023-02-28T12:35:48;7.18;;;2.90;;
43560;SDS011;32305;46.410;17.394;2023-02-28T12:38:24;3.65;;;2.90;;
43560;SDS011;32305;46.410;17.394;2023-02-28T12:41:02;5.05;;;3.33;;
43560;SDS011;32305;46.410;17.394;2023-02-28T12:43:44;8.95;;;2.72;;
43560;SDS011;32305;46.410;17.394;2023-02-28T12:46:21;2.85;;;2.35;;
43560;SDS011;32305;46.410;17.394;2023-02-28T12:48:59;5.90;;;2.72;;
43560;SDS011;32305;46.410;17.394;2023-02-28T12:51:32;10.68;;;2.60;;
43560;SDS011;32305;46.410;17.394;2023-02-28T12:54:05;4.72;;;2.78;;
43560;SDS011;32305;46.410;17.394;2023-02-28T12:56:56;3.70;;;3.03;;
43560;SDS011;32305;46.410;17.394;2023-02-28T12:59:50;5.70;;;3.85;;
43560;SDS011;32305;46.410;17.394;2023-02-28T13:05:39;4.82;;;3.00;;
43560;SDS011;32305;46.410;17.394;2023-02-28T13:11:39;3.88;;;2.72;;
43560;SDS011;32305;46.410;17.394;2023-02-28T13:17:11;3.85;;;2.90;;
43560;SDS011;32305;46.410;17.394;2023-02-28T13:19:46;5.43;;;2.78;;
43560;SDS011;32305;46.410;17.394;2023-02-28T13:31:27;4.15;;;3.05;;
43560;SDS011;32305;46.410;17.394;2023-02-28T13:34:12;5.90;;;3.38;;
43560;SDS011;32305;46.410;17.394;2023-02-28T13:36:41;4.13;;;3.28;;
43560;SDS011;32305;46.410;17.394;2023-02-28T13:42:30;4.18;;;3.00;;
43560;SDS011;32305;46.410;17.394;2023-02-28T13:47:53;7.85;;;3.30;;
43560;SDS011;32305;46.410;17.394;2023-02-28T13:50:29;7.32;;;3.50;;
43560;SDS011;32305;46.410;17.394;2023-02-28T13:53:12;8.25;;;3.97;;
43560;SDS011;32305;46.410;17.394;2023-02-28T13:56:07;470.15;;;71.20;;
43560;SDS011;32305;46.410;17.394;2023-02-28T13:58:54;374.40;;;59.08;;
43560;SDS011;32305;46.410;17.394;2023-02-28T14:01:35;284.83;;;49.60;;
43560;SDS011;32305;46.410;17.394;2023-02-28T14:04:29;151.80;;;29.00;;
43560;SDS011;32305;46.410;17.394;2023-02-28T14:07:17;103.97;;;19.75;;
43560;SDS011;32305;46.410;17.394;2023-02-28T14:09:55;109.63;;;19.17;;
43560;SDS011;32305;46.410;17.394;2023-02-28T14:15:26;66.93;;;13.13;;
43560;SDS011;32305;46.410;17.394;2023-02-28T14:18:03;75.35;;;16.52;;
43560;SDS011;32305;46.410;17.394;2023-02-28T14:20:40;65.57;;;11.18;;
43560;SDS011;32305;46.410;17.394;2023-02-28T14:23:16;35.25;;;8.63;;
43560;SDS011;32305;46.410;17.394;2023-02-28T14:26:09;28.63;;;8.50;;
43560;SDS011;32305;46.410;17.394;2023-02-28T14:29:08;22.70;;;7.40;;
43560;SDS011;32305;46.410;17.394;2023-02-28T14:31:54;20.42;;;6.95;;
43560;SDS011;32305;46.410;17.394;2023-02-28T14:34:34;17.60;;;6.30;;
43560;SDS011;32305;46.410;17.394;2023-02-28T14:37:10;16.52;;;5.82;;
43560;SDS011;32305;46.410;17.394;2023-02-28T14:39:43;19.08;;;6.38;;
43560;SDS011;32305;46.410;17.394;2023-02-28T14:45:00;13.55;;;5.95;;
43560;SDS011;32305;46.410;17.394;2023-02-28T14:47:30;12.23;;;5.57;;
43560;SDS011;32305;46.410;17.394;2023-02-28T14:49:59;13.38;;;6.82;;
43560;SDS011;32305;46.410;17.394;2023-02-28T14:52:28;19.38;;;7.22;;
43560;SDS011;32305;46.410;17.394;2023-02-28T14:54:58;19.88;;;6.75;;
43560;SDS011;32305;46.410;17.394;2023-02-28T14:57:31;18.48;;;7.43;;
43560;SDS011;32305;46.410;17.394;2023-02-28T15:00:03;13.75;;;6.03;;
43560;SDS011;32305;46.410;17.394;2023-02-28T15:02:39;15.85;;;6.75;;
43560;SDS011;32305;46.410;17.394;2023-02-28T15:05:26;17.67;;;7.38;;
43560;SDS011;32305;46.410;17.394;2023-02-28T15:08:05;18.30;;;7.85;;
43560;SDS011;32305;46.410;17.394;2023-02-28T15:10:54;16.13;;;6.78;;
43560;SDS011;32305;46.410;17.394;2023-02-28T15:13:48;15.68;;;7.20;;
43560;SDS011;32305;46.410;17.394;2023-02-28T15:16:29;18.83;;;6.78;;
43560;SDS011;32305;46.410;17.394;2023-02-28T15:19:06;15.68;;;6.65;;
43560;SDS011;32305;46.410;17.394;2023-02-28T15:21:43;14.40;;;6.47;;
43560;SDS011;32305;46.410;17.394;2023-02-28T15:24:17;12.98;;;6.40;;
43560;SDS011;32305;46.410;17.394;2023-02-28T15:26:52;16.55;;;8.00;;
43560;SDS011;32305;46.410;17.394;2023-02-28T15:29:25;17.65;;;6.53;;
43560;SDS011;32305;46.410;17.394;2023-02-28T15:32:00;18.85;;;7.10;;
43560;SDS011;32305;46.410;17.394;2023-02-28T15:34:40;14.43;;;6.75;;
43560;SDS011;32305;46.410;17.394;2023-02-28T15:40:26;14.05;;;6.82;;
43560;SDS011;32305;46.410;17.394;2023-02-28T15:43:07;15.45;;;7.05;;
43560;SDS011;32305;46.410;17.394;2023-02-28T15:45:55;17.80;;;6.80;;
43560;SDS011;32305;46.410;17.394;2023-02-28T15:48:28;17.10;;;7.15;;
43560;SDS011;32305;46.410;17.394;2023-02-28T15:51:02;22.95;;;7.25;;
43560;SDS011;32305;46.410;17.394;2023-02-28T15:53:59;16.35;;;7.15;;
43560;SDS011;32305;46.410;17.394;2023-02-28T15:56:32;19.08;;;7.32;;
43560;SDS011;32305;46.410;17.394;2023-02-28T15:59:17;15.13;;;6.45;;
43560;SDS011;32305;46.410;17.394;2023-02-28T16:02:01;17.25;;;7.05;;
43560;SDS011;32305;46.410;17.394;2023-02-28T16:05:01;19.08;;;7.50;;
43560;SDS011;32305;46.410;17.394;2023-02-28T16:07:55;18.75;;;9.13;;
43560;SDS011;32305;46.410;17.394;2023-02-28T16:10:24;21.70;;;8.05;;
43560;SDS011;32305;46.410;17.394;2023-02-28T16:12:54;21.98;;;7.60;;
43560;SDS011;32305;46.410;17.394;2023-02-28T16:15:27;18.35;;;7.15;;
43560;SDS011;32305;46.410;17.394;2023-02-28T16:17:56;15.18;;;7.13;;
43560;SDS011;32305;46.410;17.394;2023-02-28T16:20:25;16.45;;;7.72;;
43560;SDS011;32305;46.410;17.394;2023-02-28T16:22:54;16.38;;;7.10;;
43560;SDS011;32305;46.410;17.394;2023-02-28T16:25:36;18.13;;;7.25;;
43560;SDS011;32305;46.410;17.394;2023-02-28T16:28:07;17.83;;;7.00;;
43560;SDS011;32305;46.410;17.394;2023-02-28T16:30:44;20.23;;;7.82;;
43560;SDS011;32305;46.410;17.394;2023-02-28T16:33:11;16.90;;;6.95;;